sensor_id;sensor_type;location;lat;lon;timestamp;P1;durP1;ratioP1;P2;durP2;ratioP2
30062;SDS011;16889;67.864;24.990;2023-07-22T00:02:37;13.60;;;5.95;;
30062;SDS011;16889;67.864;24.990;2023-07-22T00:07:23;9.40;;;5.88;;
30062;SDS011;16889;67.864;24.990;2023-07-22T00:12:09;9.18;;;5.60;;
30062;SDS011;16889;67.864;24.990;2023-07-22T00:16:56;13.00;;;5.40;;
30062;SDS011;16889;67.864;24.990;2023-07-22T00:21:42;8.40;;;5.43;;
30062;SDS011;16889;67.864;24.990;2023-07-22T00:26:27;7.70;;;5.28;;
30062;SDS011;16889;67.864;24.990;2023-07-22T00:31:13;9.85;;;5.13;;
30062;SDS011;16889;67.864;24.990;2023-07-22T00:35:59;7.28;;;4.32;;
30062;SDS011;16889;67.864;24.990;2023-07-22T00:40:45;8.25;;;4.20;;
30062;SDS011;16889;67.864;24.990;2023-07-22T00:45:31;6.53;;;4.07;;
30062;SDS011;16889;67.864;24.990;2023-07-22T00:50:17;5.90;;;3.47;;
30062;SDS011;16889;67.864;24.990;2023-07-22T00:55:04;4.85;;;3.05;;
30062;SDS011;16889;67.864;24.990;2023-07-22T00:59:51;4.80;;;2.20;;
30062;SDS011;16889;67.864;24.990;2023-07-22T01:04:37;3.97;;;2.25;;
30062;SDS011;16889;67.864;24.990;2023-07-22T01:09:23;4.03;;;2.25;;
30062;SDS011;16889;67.864;24.990;2023-07-22T01:14:09;2.72;;;1.80;;
30062;SDS011;16889;67.864;24.990;2023-07-22T01:18:55;2.55;;;1.50;;
30062;SDS011;16889;67.864;24.990;2023-07-22T01:23:41;2.80;;;1.70;;
30062;SDS011;16889;67.864;24.990;2023-07-22T01:28:28;5.60;;;1.60;;
30062;SDS011;16889;67.864;24.990;2023-07-22T01:33:14;3.40;;;1.77;;
30062;SDS011;16889;67.864;24.990;2023-07-22T01:38:00;4.28;;;1.60;;
30062;SDS011;16889;67.864;24.990;2023-07-22T01:42:46;2.72;;;1.70;;
30062;SDS011;16889;67.864;24.990;2023-07-22T01:47:32;4.75;;;1.90;;
30062;SDS011;16889;67.864;24.990;2023-07-22T01:52:18;3.92;;;1.80;;
30062;SDS011;16889;67.864;24.990;2023-07-22T01:57:04;2.38;;;1.70;;
30062;SDS011;16889;67.864;24.990;2023-07-22T02:01:50;2.75;;;1.65;;
30062;SDS011;16889;67.864;24.990;2023-07-22T02:06:36;3.97;;;1.80;;
30062;SDS011;16889;67.864;24.990;2023-07-22T02:11:22;2.72;;;1.60;;
30062;SDS011;16889;67.864;24.990;2023-07-22T02:16:08;2.72;;;1.55;;
30062;SDS011;16889;67.864;24.990;2023-07-22T02:20:57;5.90;;;1.73;;
30062;SDS011;16889;67.864;24.990;2023-07-22T02:25:43;3.08;;;1.40;;
30062;SDS011;16889;67.864;24.990;2023-07-22T02:30:34;3.05;;;1.58;;
30062;SDS011;16889;67.864;24.990;2023-07-22T02:35:23;2.30;;;1.35;;
30062;SDS011;16889;67.864;24.990;2023-07-22T02:40:09;1.58;;;1.30;;
30062;SDS011;16889;67.864;24.990;2023-07-22T02:44:59;3.70;;;1.23;;
30062;SDS011;16889;67.864;24.990;2023-07-22T02:49:45;2.00;;;1.40;;
30062;SDS011;16889;67.864;24.990;2023-07-22T02:54:31;4.75;;;1.40;;
30062;SDS011;16889;67.864;24.990;2023-07-22T02:59:17;2.75;;;1.40;;
30062;SDS011;16889;67.864;24.990;2023-07-22T03:04:03;4.07;;;1.45;;
30062;SDS011;16889;67.864;24.990;2023-07-22T03:08:49;2.60;;;1.40;;
30062;SDS011;16889;67.864;24.990;2023-07-22T03:13:36;3.97;;;1.85;;
30062;SDS011;16889;67.864;24.990;2023-07-22T03:18:22;3.15;;;1.98;;
30062;SDS011;16889;67.864;24.990;2023-07-22T03:23:08;4.43;;;1.83;;
30062;SDS011;16889;67.864;24.990;2023-07-22T03:27:54;4.90;;;1.60;;
30062;SDS011;16889;67.864;24.990;2023-07-22T03:32:42;3.92;;;1.75;;
30062;SDS011;16889;67.864;24.990;2023-07-22T03:37:29;4.30;;;2.28;;
30062;SDS011;16889;67.864;24.990;2023-07-22T03:42:15;5.47;;;2.00;;
30062;SDS011;16889;67.864;24.990;2023-07-22T03:47:01;5.05;;;2.00;;
30062;SDS011;16889;67.864;24.990;2023-07-22T03:51:47;4.07;;;1.90;;
30062;SDS011;16889;67.864;24.990;2023-07-22T03:56:34;6.50;;;2.22;;
30062;SDS011;16889;67.864;24.990;2023-07-22T04:01:20;4.85;;;1.90;;
30062;SDS011;16889;67.864;24.990;2023-07-22T04:06:06;7.15;;;2.83;;
30062;SDS011;16889;67.864;24.990;2023-07-22T04:10:52;5.65;;;2.38;;
30062;SDS011;16889;67.864;24.990;2023-07-22T04:15:39;4.80;;;2.05;;
30062;SDS011;16889;67.864;24.990;2023-07-22T04:20:26;8.55;;;2.50;;
30062;SDS011;16889;67.864;24.990;2023-07-22T04:25:13;5.05;;;2.40;;
30062;SDS011;16889;67.864;24.990;2023-07-22T04:29:59;6.78;;;2.75;;
30062;SDS011;16889;67.864;24.990;2023-07-22T04:34:45;7.05;;;2.95;;
30062;SDS011;16889;67.864;24.990;2023-07-22T04:39:31;5.15;;;2.47;;
30062;SDS011;16889;67.864;24.990;2023-07-22T04:44:18;6.53;;;2.65;;
30062;SDS011;16889;67.864;24.990;2023-07-22T04:49:04;5.57;;;2.78;;
30062;SDS011;16889;67.864;24.990;2023-07-22T04:53:50;9.63;;;3.35;;
30062;SDS011;16889;67.864;24.990;2023-07-22T04:58:36;8.63;;;3.50;;
30062;SDS011;16889;67.864;24.990;2023-07-22T05:03:23;10.52;;;3.83;;
30062;SDS011;16889;67.864;24.990;2023-07-22T05:08:11;11.32;;;4.50;;
30062;SDS011;16889;67.864;24.990;2023-07-22T05:12:57;9.77;;;4.00;;
30062;SDS011;16889;67.864;24.990;2023-07-22T05:17:43;12.85;;;4.15;;
30062;SDS011;16889;67.864;24.990;2023-07-22T05:22:29;10.68;;;4.47;;
30062;SDS011;16889;67.864;24.990;2023-07-22T05:27:16;12.90;;;4.47;;
30062;SDS011;16889;67.864;24.990;2023-07-22T05:32:05;11.68;;;4.28;;
30062;SDS011;16889;67.864;24.990;2023-07-22T05:36:51;10.18;;;4.45;;
30062;SDS011;16889;67.864;24.990;2023-07-22T05:41:37;11.85;;;3.95;;
30062;SDS011;16889;67.864;24.990;2023-07-22T05:46:23;11.00;;;4.40;;
30062;SDS011;16889;67.864;24.990;2023-07-22T05:51:09;11.02;;;4.50;;
30062;SDS011;16889;67.864;24.990;2023-07-22T05:55:55;9.48;;;4.10;;
30062;SDS011;16889;67.864;24.990;2023-07-22T06:00:41;9.82;;;4.38;;
30062;SDS011;16889;67.864;24.990;2023-07-22T06:05:27;11.85;;;4.13;;
30062;SDS011;16889;67.864;24.990;2023-07-22T06:10:13;9.90;;;3.95;;
30062;SDS011;16889;67.864;24.990;2023-07-22T06:14:59;15.57;;;4.53;;
30062;SDS011;16889;67.864;24.990;2023-07-22T06:19:45;14.50;;;4.03;;
30062;SDS011;16889;67.864;24.990;2023-07-22T06:24:31;11.63;;;4.65;;
30062;SDS011;16889;67.864;24.990;2023-07-22T06:29:19;12.32;;;5.00;;
30062;SDS011;16889;67.864;24.990;2023-07-22T06:34:05;11.85;;;4.43;;
30062;SDS011;16889;67.864;24.990;2023-07-22T06:38:51;13.13;;;4.28;;
30062;SDS011;16889;67.864;24.990;2023-07-22T06:43:37;15.63;;;4.28;;
30062;SDS011;16889;67.864;24.990;2023-07-22T06:48:23;9.07;;;4.68;;
30062;SDS011;16889;67.864;24.990;2023-07-22T06:53:09;10.43;;;4.38;;
30062;SDS011;16889;67.864;24.990;2023-07-22T06:57:56;10.02;;;4.57;;
30062;SDS011;16889;67.864;24.990;2023-07-22T07:02:42;10.95;;;4.78;;
30062;SDS011;16889;67.864;24.990;2023-07-22T07:07:28;9.63;;;4.68;;
30062;SDS011;16889;67.864;24.990;2023-07-22T07:12:14;10.82;;;4.75;;
30062;SDS011;16889;67.864;24.990;2023-07-22T07:17:00;13.48;;;4.57;;
30062;SDS011;16889;67.864;24.990;2023-07-22T07:21:47;9.90;;;4.40;;
30062;SDS011;16889;67.864;24.990;2023-07-22T07:26:33;10.80;;;4.35;;
30062;SDS011;16889;67.864;24.990;2023-07-22T07:31:19;6.75;;;4.30;;
30062;SDS011;16889;67.864;24.990;2023-07-22T07:36:05;11.77;;;4.50;;
30062;SDS011;16889;67.864;24.990;2023-07-22T07:41:13;16.50;;;4.97;;
30062;SDS011;16889;67.864;24.990;2023-07-22T07:55:53;13.13;;;4.20;;
30062;SDS011;16889;67.864;24.990;2023-07-22T08:00:39;9.70;;;4.25;;
30062;SDS011;16889;67.864;24.990;2023-07-22T08:05:25;9.38;;;4.10;;
30062;SDS011;16889;67.864;24.990;2023-07-22T08:10:11;10.15;;;4.55;;
30062;SDS011;16889;67.864;24.990;2023-07-22T08:14:57;8.75;;;4.43;;
30062;SDS011;16889;67.864;24.990;2023-07-22T08:19:44;8.73;;;4.18;;
30062;SDS011;16889;67.864;24.990;2023-07-22T08:24:30;8.43;;;3.33;;
30062;SDS011;16889;67.864;24.990;2023-07-22T08:29:16;8.93;;;3.38;;
30062;SDS011;16889;67.864;24.990;2023-07-22T08:34:02;6.30;;;3.40;;
30062;SDS011;16889;67.864;24.990;2023-07-22T08:38:48;6.68;;;3.05;;
30062;SDS011;16889;67.864;24.990;2023-07-22T08:43:34;9.05;;;3.08;;
30062;SDS011;16889;67.864;24.990;2023-07-22T08:48:26;7.90;;;2.92;;
30062;SDS011;16889;67.864;24.990;2023-07-22T08:53:14;5.03;;;2.90;;
30062;SDS011;16889;67.864;24.990;2023-07-22T08:58:01;4.00;;;3.10;;
30062;SDS011;16889;67.864;24.990;2023-07-22T09:02:47;5.22;;;2.70;;
30062;SDS011;16889;67.864;24.990;2023-07-22T09:07:35;3.50;;;2.53;;
30062;SDS011;16889;67.864;24.990;2023-07-22T09:12:23;4.75;;;2.45;;
30062;SDS011;16889;67.864;24.990;2023-07-22T09:17:10;4.40;;;2.45;;
30062;SDS011;16889;67.864;24.990;2023-07-22T09:21:56;3.78;;;2.30;;
30062;SDS011;16889;67.864;24.990;2023-07-22T09:26:43;5.50;;;2.50;;
30062;SDS011;16889;67.864;24.990;2023-07-22T09:31:29;3.53;;;2.00;;
30062;SDS011;16889;67.864;24.990;2023-07-22T09:36:16;3.55;;;2.10;;
30062;SDS011;16889;67.864;24.990;2023-07-22T09:41:02;3.42;;;2.00;;
30062;SDS011;16889;67.864;24.990;2023-07-22T09:45:48;5.35;;;1.88;;
30062;SDS011;16889;67.864;24.990;2023-07-22T09:50:34;2.20;;;1.88;;
30062;SDS011;16889;67.864;24.990;2023-07-22T09:55:23;3.00;;;1.92;;
30062;SDS011;16889;67.864;24.990;2023-07-22T10:00:11;1.83;;;1.50;;
30062;SDS011;16889;67.864;24.990;2023-07-22T10:04:59;3.28;;;1.83;;
30062;SDS011;16889;67.864;24.990;2023-07-22T10:09:47;2.00;;;1.80;;
30062;SDS011;16889;67.864;24.990;2023-07-22T10:14:34;2.20;;;1.47;;
30062;SDS011;16889;67.864;24.990;2023-07-22T10:19:21;5.70;;;1.80;;
30062;SDS011;16889;67.864;24.990;2023-07-22T10:24:08;2.50;;;1.77;;
30062;SDS011;16889;67.864;24.990;2023-07-22T10:28:55;2.53;;;1.40;;
30062;SDS011;16889;67.864;24.990;2023-07-22T10:33:42;3.05;;;1.58;;
30062;SDS011;16889;67.864;24.990;2023-07-22T10:38:28;2.53;;;1.50;;
30062;SDS011;16889;67.864;24.990;2023-07-22T10:43:18;5.10;;;1.80;;
30062;SDS011;16889;67.864;24.990;2023-07-22T10:48:10;3.67;;;1.50;;
30062;SDS011;16889;67.864;24.990;2023-07-22T10:57:54;2.07;;;1.50;;
30062;SDS011;16889;67.864;24.990;2023-07-22T11:02:41;2.05;;;1.60;;
30062;SDS011;16889;67.864;24.990;2023-07-22T11:07:33;2.03;;;1.55;;
30062;SDS011;16889;67.864;24.990;2023-07-22T11:12:30;2.38;;;1.50;;
30062;SDS011;16889;67.864;24.990;2023-07-22T11:17:17;2.60;;;1.85;;
30062;SDS011;16889;67.864;24.990;2023-07-22T11:22:16;3.47;;;1.98;;
30062;SDS011;16889;67.864;24.990;2023-07-22T11:27:03;3.28;;;2.22;;
30062;SDS011;16889;67.864;24.990;2023-07-22T11:31:50;4.15;;;2.13;;
30062;SDS011;16889;67.864;24.990;2023-07-22T11:36:36;7.35;;;2.00;;
30062;SDS011;16889;67.864;24.990;2023-07-22T11:41:24;8.40;;;2.25;;
30062;SDS011;16889;67.864;24.990;2023-07-22T11:46:10;7.53;;;2.55;;
30062;SDS011;16889;67.864;24.990;2023-07-22T11:50:59;6.00;;;2.60;;
30062;SDS011;16889;67.864;24.990;2023-07-22T11:55:45;4.95;;;2.28;;
30062;SDS011;16889;67.864;24.990;2023-07-22T12:00:32;5.13;;;2.40;;
30062;SDS011;16889;67.864;24.990;2023-07-22T12:05:20;5.85;;;2.80;;
30062;SDS011;16889;67.864;24.990;2023-07-22T12:10:07;7.93;;;2.65;;
30062;SDS011;16889;67.864;24.990;2023-07-22T12:14:55;6.10;;;2.55;;
30062;SDS011;16889;67.864;24.990;2023-07-22T12:19:52;6.70;;;2.60;;
30062;SDS011;16889;67.864;24.990;2023-07-22T12:24:38;6.53;;;2.90;;
30062;SDS011;16889;67.864;24.990;2023-07-22T12:29:24;6.60;;;2.35;;
30062;SDS011;16889;67.864;24.990;2023-07-22T12:34:11;5.25;;;2.65;;
30062;SDS011;16889;67.864;24.990;2023-07-22T12:38:57;5.30;;;2.42;;
30062;SDS011;16889;67.864;24.990;2023-07-22T12:43:43;9.18;;;2.70;;
30062;SDS011;16889;67.864;24.990;2023-07-22T12:48:28;7.10;;;3.00;;
30062;SDS011;16889;67.864;24.990;2023-07-22T12:53:15;6.22;;;2.78;;
30062;SDS011;16889;67.864;24.990;2023-07-22T12:58:01;7.18;;;3.28;;
30062;SDS011;16889;67.864;24.990;2023-07-22T13:02:47;11.52;;;3.60;;
30062;SDS011;16889;67.864;24.990;2023-07-22T13:07:33;6.97;;;2.90;;
30062;SDS011;16889;67.864;24.990;2023-07-22T13:12:19;5.72;;;2.75;;
30062;SDS011;16889;67.864;24.990;2023-07-22T13:17:05;15.43;;;2.80;;
30062;SDS011;16889;67.864;24.990;2023-07-22T13:21:51;8.75;;;2.85;;
30062;SDS011;16889;67.864;24.990;2023-07-22T13:26:37;9.57;;;2.33;;
30062;SDS011;16889;67.864;24.990;2023-07-22T13:31:23;10.07;;;3.05;;
30062;SDS011;16889;67.864;24.990;2023-07-22T13:36:11;9.48;;;2.67;;
30062;SDS011;16889;67.864;24.990;2023-07-22T13:40:57;9.45;;;3.38;;
30062;SDS011;16889;67.864;24.990;2023-07-22T13:45:43;7.38;;;2.90;;
30062;SDS011;16889;67.864;24.990;2023-07-22T13:50:28;9.48;;;2.60;;
30062;SDS011;16889;67.864;24.990;2023-07-22T13:55:15;9.05;;;2.72;;
30062;SDS011;16889;67.864;24.990;2023-07-22T14:00:02;9.68;;;2.95;;
30062;SDS011;16889;67.864;24.990;2023-07-22T14:04:55;10.43;;;3.40;;
30062;SDS011;16889;67.864;24.990;2023-07-22T14:09:41;12.43;;;3.17;;
30062;SDS011;16889;67.864;24.990;2023-07-22T14:14:27;12.75;;;3.53;;
30062;SDS011;16889;67.864;24.990;2023-07-22T14:19:13;10.35;;;3.20;;
30062;SDS011;16889;67.864;24.990;2023-07-22T14:23:59;11.50;;;3.20;;
30062;SDS011;16889;67.864;24.990;2023-07-22T14:28:45;8.55;;;3.25;;
30062;SDS011;16889;67.864;24.990;2023-07-22T14:33:31;10.88;;;3.00;;
30062;SDS011;16889;67.864;24.990;2023-07-22T14:38:17;15.10;;;3.28;;
30062;SDS011;16889;67.864;24.990;2023-07-22T14:43:03;11.05;;;3.30;;
30062;SDS011;16889;67.864;24.990;2023-07-22T14:47:49;12.57;;;3.10;;
30062;SDS011;16889;67.864;24.990;2023-07-22T14:52:35;9.55;;;3.33;;
30062;SDS011;16889;67.864;24.990;2023-07-22T14:57:21;10.32;;;2.90;;
30062;SDS011;16889;67.864;24.990;2023-07-22T15:02:07;12.00;;;3.50;;
30062;SDS011;16889;67.864;24.990;2023-07-22T15:06:53;13.65;;;3.55;;
30062;SDS011;16889;67.864;24.990;2023-07-22T15:11:39;11.23;;;3.13;;
30062;SDS011;16889;67.864;24.990;2023-07-22T15:16:25;11.50;;;2.92;;
30062;SDS011;16889;67.864;24.990;2023-07-22T15:21:11;9.32;;;3.03;;
30062;SDS011;16889;67.864;24.990;2023-07-22T15:25:57;13.02;;;3.20;;
30062;SDS011;16889;67.864;24.990;2023-07-22T15:30:44;12.82;;;3.80;;
30062;SDS011;16889;67.864;24.990;2023-07-22T15:35:30;17.13;;;3.83;;
30062;SDS011;16889;67.864;24.990;2023-07-22T15:40:16;12.50;;;3.60;;
30062;SDS011;16889;67.864;24.990;2023-07-22T15:45:03;10.98;;;3.33;;
30062;SDS011;16889;67.864;24.990;2023-07-22T15:49:50;12.52;;;3.40;;
30062;SDS011;16889;67.864;24.990;2023-07-22T15:54:36;13.35;;;3.90;;
30062;SDS011;16889;67.864;24.990;2023-07-22T15:59:21;14.23;;;4.10;;
30062;SDS011;16889;67.864;24.990;2023-07-22T16:04:08;10.43;;;3.70;;
30062;SDS011;16889;67.864;24.990;2023-07-22T16:08:53;12.85;;;3.40;;
30062;SDS011;16889;67.864;24.990;2023-07-22T16:13:39;15.80;;;3.60;;
30062;SDS011;16889;67.864;24.990;2023-07-22T16:18:25;12.98;;;3.65;;
30062;SDS011;16889;67.864;24.990;2023-07-22T16:23:11;18.42;;;3.75;;
30062;SDS011;16889;67.864;24.990;2023-07-22T16:27:57;17.85;;;3.70;;
30062;SDS011;16889;67.864;24.990;2023-07-22T16:32:43;12.73;;;3.13;;
30062;SDS011;16889;67.864;24.990;2023-07-22T16:37:29;14.05;;;3.90;;
30062;SDS011;16889;67.864;24.990;2023-07-22T16:42:15;13.65;;;3.60;;
30062;SDS011;16889;67.864;24.990;2023-07-22T16:47:01;14.70;;;3.83;;
30062;SDS011;16889;67.864;24.990;2023-07-22T16:51:47;15.10;;;4.72;;
30062;SDS011;16889;67.864;24.990;2023-07-22T16:56:33;21.85;;;6.15;;
30062;SDS011;16889;67.864;24.990;2023-07-22T17:01:19;23.55;;;5.05;;
30062;SDS011;16889;67.864;24.990;2023-07-22T17:06:05;13.68;;;4.25;;
30062;SDS011;16889;67.864;24.990;2023-07-22T17:10:51;10.30;;;3.85;;
30062;SDS011;16889;67.864;24.990;2023-07-22T17:15:37;13.27;;;3.67;;
30062;SDS011;16889;67.864;24.990;2023-07-22T17:20:23;8.65;;;3.80;;
30062;SDS011;16889;67.864;24.990;2023-07-22T17:25:10;10.57;;;3.78;;
30062;SDS011;16889;67.864;24.990;2023-07-22T17:29:56;10.20;;;3.70;;
30062;SDS011;16889;67.864;24.990;2023-07-22T17:34:42;14.30;;;3.65;;
30062;SDS011;16889;67.864;24.990;2023-07-22T17:39:29;15.63;;;3.60;;
30062;SDS011;16889;67.864;24.990;2023-07-22T17:44:15;11.27;;;3.80;;
30062;SDS011;16889;67.864;24.990;2023-07-22T17:49:02;13.82;;;4.20;;
30062;SDS011;16889;67.864;24.990;2023-07-22T17:53:48;10.15;;;3.78;;
30062;SDS011;16889;67.864;24.990;2023-07-22T17:58:34;11.90;;;4.05;;
30062;SDS011;16889;67.864;24.990;2023-07-22T18:03:20;16.33;;;3.83;;
30062;SDS011;16889;67.864;24.990;2023-07-22T18:08:06;11.13;;;3.92;;
30062;SDS011;16889;67.864;24.990;2023-07-22T18:12:52;10.73;;;3.55;;
30062;SDS011;16889;67.864;24.990;2023-07-22T18:17:38;11.73;;;3.60;;
30062;SDS011;16889;67.864;24.990;2023-07-22T18:22:24;9.43;;;3.95;;
30062;SDS011;16889;67.864;24.990;2023-07-22T18:27:10;18.25;;;4.38;;
30062;SDS011;16889;67.864;24.990;2023-07-22T18:31:56;11.00;;;4.10;;
30062;SDS011;16889;67.864;24.990;2023-07-22T18:36:42;10.98;;;3.97;;
30062;SDS011;16889;67.864;24.990;2023-07-22T18:41:28;14.50;;;4.32;;
30062;SDS011;16889;67.864;24.990;2023-07-22T18:46:20;14.70;;;4.25;;
30062;SDS011;16889;67.864;24.990;2023-07-22T18:51:07;13.98;;;4.57;;
30062;SDS011;16889;67.864;24.990;2023-07-22T18:55:53;14.95;;;4.00;;
30062;SDS011;16889;67.864;24.990;2023-07-22T19:00:39;12.35;;;4.47;;
30062;SDS011;16889;67.864;24.990;2023-07-22T19:05:25;12.18;;;4.50;;
30062;SDS011;16889;67.864;24.990;2023-07-22T19:10:11;16.67;;;4.55;;
30062;SDS011;16889;67.864;24.990;2023-07-22T19:14:57;13.43;;;4.60;;
30062;SDS011;16889;67.864;24.990;2023-07-22T19:19:43;9.90;;;3.92;;
30062;SDS011;16889;67.864;24.990;2023-07-22T19:24:29;11.75;;;4.43;;
30062;SDS011;16889;67.864;24.990;2023-07-22T19:29:15;12.35;;;5.30;;
30062;SDS011;16889;67.864;24.990;2023-07-22T19:34:00;14.82;;;4.82;;
30062;SDS011;16889;67.864;24.990;2023-07-22T19:38:47;14.43;;;5.35;;
30062;SDS011;16889;67.864;24.990;2023-07-22T19:43:33;17.13;;;5.65;;
30062;SDS011;16889;67.864;24.990;2023-07-22T19:48:20;13.57;;;5.57;;
30062;SDS011;16889;67.864;24.990;2023-07-22T19:53:06;13.55;;;4.78;;
30062;SDS011;16889;67.864;24.990;2023-07-22T19:57:52;14.20;;;5.13;;
30062;SDS011;16889;67.864;24.990;2023-07-22T20:02:38;17.05;;;5.45;;
30062;SDS011;16889;67.864;24.990;2023-07-22T20:07:23;13.15;;;4.40;;
30062;SDS011;16889;67.864;24.990;2023-07-22T20:12:09;14.93;;;5.65;;
30062;SDS011;16889;67.864;24.990;2023-07-22T20:16:55;16.65;;;5.20;;
30062;SDS011;16889;67.864;24.990;2023-07-22T20:21:41;15.43;;;5.03;;
30062;SDS011;16889;67.864;24.990;2023-07-22T20:26:28;15.30;;;5.80;;
30062;SDS011;16889;67.864;24.990;2023-07-22T20:31:14;15.77;;;5.88;;
30062;SDS011;16889;67.864;24.990;2023-07-22T20:36:00;16.58;;;5.60;;
30062;SDS011;16889;67.864;24.990;2023-07-22T20:40:46;17.08;;;5.55;;
30062;SDS011;16889;67.864;24.990;2023-07-22T20:45:31;18.70;;;6.47;;
30062;SDS011;16889;67.864;24.990;2023-07-22T20:50:17;23.13;;;6.68;;
30062;SDS011;16889;67.864;24.990;2023-07-22T20:55:04;23.63;;;6.07;;
30062;SDS011;16889;67.864;24.990;2023-07-22T20:59:55;22.27;;;6.20;;
30062;SDS011;16889;67.864;24.990;2023-07-22T21:04:42;20.15;;;6.78;;
30062;SDS011;16889;67.864;24.990;2023-07-22T21:09:29;28.42;;;7.60;;
30062;SDS011;16889;67.864;24.990;2023-07-22T21:14:15;24.38;;;7.20;;
30062;SDS011;16889;67.864;24.990;2023-07-22T21:19:01;18.70;;;6.50;;
30062;SDS011;16889;67.864;24.990;2023-07-22T21:23:47;21.58;;;6.28;;
30062;SDS011;16889;67.864;24.990;2023-07-22T21:28:33;21.00;;;7.18;;
30062;SDS011;16889;67.864;24.990;2023-07-22T21:33:20;20.38;;;6.72;;
30062;SDS011;16889;67.864;24.990;2023-07-22T21:38:07;22.30;;;6.87;;
30062;SDS011;16889;67.864;24.990;2023-07-22T21:42:53;25.80;;;7.65;;
30062;SDS011;16889;67.864;24.990;2023-07-22T21:47:39;30.77;;;8.07;;
30062;SDS011;16889;67.864;24.990;2023-07-22T21:52:25;23.65;;;7.10;;
30062;SDS011;16889;67.864;24.990;2023-07-22T21:57:10;20.67;;;7.10;;
30062;SDS011;16889;67.864;24.990;2023-07-22T22:01:56;26.20;;;7.32;;
30062;SDS011;16889;67.864;24.990;2023-07-22T22:06:43;24.20;;;7.78;;
30062;SDS011;16889;67.864;24.990;2023-07-22T22:11:31;20.80;;;7.45;;
30062;SDS011;16889;67.864;24.990;2023-07-22T22:16:16;18.58;;;7.15;;
30062;SDS011;16889;67.864;24.990;2023-07-22T22:21:02;19.20;;;7.38;;
30062;SDS011;16889;67.864;24.990;2023-07-22T22:25:48;24.23;;;8.13;;
30062;SDS011;16889;67.864;24.990;2023-07-22T22:30:34;26.52;;;8.52;;
30062;SDS011;16889;67.864;24.990;2023-07-22T22:35:20;21.65;;;7.85;;
30062;SDS011;16889;67.864;24.990;2023-07-22T22:40:07;23.73;;;8.63;;
30062;SDS011;16889;67.864;24.990;2023-07-22T22:44:53;25.50;;;8.68;;
30062;SDS011;16889;67.864;24.990;2023-07-22T22:49:39;24.08;;;7.80;;
30062;SDS011;16889;67.864;24.990;2023-07-22T22:54:25;18.30;;;7.60;;
30062;SDS011;16889;67.864;24.990;2023-07-22T22:59:11;22.17;;;8.30;;
30062;SDS011;16889;67.864;24.990;2023-07-22T23:03:57;26.30;;;8.32;;
30062;SDS011;16889;67.864;24.990;2023-07-22T23:08:43;23.17;;;8.68;;
30062;SDS011;16889;67.864;24.990;2023-07-22T23:13:29;18.63;;;8.23;;
30062;SDS011;16889;67.864;24.990;2023-07-22T23:18:15;24.50;;;8.35;;
30062;SDS011;16889;67.864;24.990;2023-07-22T23:23:01;26.45;;;8.90;;
30062;SDS011;16889;67.864;24.990;2023-07-22T23:27:47;22.80;;;8.73;;
30062;SDS011;16889;67.864;24.990;2023-07-22T23:32:33;25.35;;;8.70;;
30062;SDS011;16889;67.864;24.990;2023-07-22T23:37:19;23.85;;;8.77;;
30062;SDS011;16889;67.864;24.990;2023-07-22T23:42:05;28.33;;;8.35;;
30062;SDS011;16889;67.864;24.990;2023-07-22T23:46:51;22.05;;;8.93;;
30062;SDS011;16889;67.864;24.990;2023-07-22T23:51:37;18.75;;;8.40;;
30062;SDS011;16889;67.864;24.990;2023-07-22T23:56:23;30.60;;;8.45;;
